Time;durP1;ratioP1;P1;durP2;ratioP2;P2;SDS_P1;SDS_P2;PMS_P1;PMS_P2;Temp;Humidity;BMP_temperature;BMP_pressure;BME280_temperature;BME280_humidity;BME280_pressure;Samples;Min_cycle;Max_cycle;Signal;HPM_P1;HPM_P2
2021/10/22 00:01:36;;;;;;;3.30;0.60;;;;;;;9.76;69.60;99181.83;88615;1278;82646;-61
2021/10/22 00:03:46;;;;;;;3.50;0.60;;;;;;;9.68;69.47;99192.06;88629;1278;97826;-66
2021/10/22 00:05:53;;;;;;;2.00;0.50;;;;;;;9.63;69.35;99193.77;88673;1277;87382;-66
2021/10/22 00:08:01;;;;;;;3.80;0.50;;;;;;;9.58;69.69;99193.59;88631;1277;93185;-65
2021/10/22 00:10:11;;;;;;;3.80;0.70;;;;;;;9.49;69.95;99201.95;88586;1278;79882;-66
2021/10/22 00:12:19;;;;;;;3.40;0.60;;;;;;;9.36;70.45;99202.61;88685;1272;80931;-66
2021/10/22 00:14:26;;;;;;;3.90;0.70;;;;;;;9.26;70.60;99204.77;88759;1277;98197;-61
2021/10/22 00:16:35;;;;;;;1.70;0.50;;;;;;;9.20;70.82;99206.98;88696;1275;87200;-64
2021/10/22 00:18:42;;;;;;;2.20;0.60;;;;;;;9.17;70.60;99215.20;88697;1275;92469;-67
2021/10/22 00:20:50;;;;;;;2.50;0.60;;;;;;;9.13;71.36;99218.48;88654;1277;79789;-66
2021/10/22 00:22:57;;;;;;;3.50;0.70;;;;;;;9.09;71.09;99227.44;88654;1277;82347;-62
2021/10/22 00:25:06;;;;;;;2.90;0.50;;;;;;;9.09;71.24;99221.75;88634;1278;99950;-61
2021/10/22 00:27:14;;;;;;;1.80;0.50;;;;;;;9.08;71.25;99226.73;88735;1275;87829;-62
2021/10/22 00:29:21;;;;;;;3.00;0.80;;;;;;;9.08;71.21;99227.80;88697;1278;95181;-62
2021/10/22 00:31:32;;;;;;;1.00;0.50;;;;;;;9.06;71.05;99228.52;88764;1277;82800;-62
2021/10/22 00:33:40;;;;;;;1.30;0.60;;;;;;;9.03;71.46;99232.17;88760;1271;81082;-62
2021/10/22 00:35:47;;;;;;;6.10;0.80;;;;;;;9.04;71.15;99232.30;88743;1278;99925;-63
2021/10/22 00:37:54;;;;;;;3.60;0.80;;;;;;;9.03;71.16;99230.13;88723;1277;88514;-61
2021/10/22 00:40:02;;;;;;;2.10;0.60;;;;;;;9.05;71.01;99226.98;88685;1278;93857;-62
2021/10/22 00:42:12;;;;;;;2.90;0.90;;;;;;;9.06;70.95;99230.09;88659;1275;80084;-63
2021/10/22 00:44:20;;;;;;;2.20;0.60;;;;;;;9.07;70.91;99235.80;88767;1277;79939;-63
2021/10/22 00:46:30;;;;;;;3.30;0.60;;;;;;;9.06;70.93;99238.01;88657;1278;98608;-64
2021/10/22 00:48:41;;;;;;;1.70;0.70;;;;;;;9.08;70.88;99240.33;88721;1277;88479;-64
2021/10/22 00:50:55;;;;;;;2.20;0.60;;;;;;;9.08;70.96;99240.98;88661;1278;92577;-66
2021/10/22 00:53:07;;;;;;;2.20;0.80;;;;;;;9.10;70.75;99245.33;88673;1277;78836;-66
2021/10/22 00:55:16;;;;;;;2.40;0.80;;;;;;;9.11;70.72;99249.44;88693;1277;82449;-69
2021/10/22 00:57:24;;;;;;;3.00;0.60;;;;;;;9.11;70.81;99250.69;88665;1277;98961;-67
2021/10/22 00:59:31;;;;;;;4.90;0.80;;;;;;;9.04;70.80;99254.30;88746;1277;88862;-64
2021/10/22 01:01:42;;;;;;;1.20;0.50;;;;;;;9.00;70.63;99256.86;88670;1277;93602;-65
2021/10/22 01:03:50;;;;;;;1.10;0.60;;;;;;;8.95;70.52;99252.17;88730;1277;81500;-62
2021/10/22 01:05:59;;;;;;;2.20;0.60;;;;;;;8.94;70.46;99261.09;88682;1277;81910;-61
2021/10/22 01:08:10;;;;;;;2.00;0.60;;;;;;;8.94;70.36;99267.00;88676;1277;96146;-65
2021/10/22 01:10:18;;;;;;;2.00;0.60;;;;;;;8.94;70.31;99273.11;88768;1277;88569;-66
2021/10/22 01:12:26;;;;;;;1.40;0.50;;;;;;;8.92;70.22;99269.05;88682;1275;93390;-65
2021/10/22 01:14:33;;;;;;;1.40;0.60;;;;;;;8.91;70.16;99283.34;88621;1278;79580;-65
2021/10/22 01:16:42;;;;;;;2.40;0.80;;;;;;;8.88;70.06;99282.75;88649;1278;82428;-65
2021/10/22 01:18:50;;;;;;;1.50;0.60;;;;;;;8.86;70.06;99288.31;88654;1277;99126;-61
2021/10/22 01:21:02;;;;;;;2.70;0.60;;;;;;;8.85;69.97;99297.25;88699;1277;88050;-61
2021/10/22 01:23:10;;;;;;;3.60;0.60;;;;;;;8.87;69.98;99298.09;88641;1278;94664;-66
2021/10/22 01:25:23;;;;;;;1.20;0.60;;;;;;;8.87;69.99;99296.80;88674;1278;78240;-65
2021/10/22 01:27:31;;;;;;;3.00;0.70;;;;;;;8.89;69.85;99300.95;88649;1278;82600;-65
2021/10/22 01:29:39;;;;;;;2.20;0.50;;;;;;;8.93;69.71;99298.75;88687;1277;98311;-65
2021/10/22 01:31:47;;;;;;;1.40;0.60;;;;;;;8.95;69.41;99297.88;88661;1276;88175;-66
2021/10/22 01:33:55;;;;;;;1.50;0.60;;;;;;;8.96;69.29;99306.09;88662;1277;94425;-66
2021/10/22 01:36:02;;;;;;;1.40;0.40;;;;;;;8.97;69.09;99304.09;88716;1277;79216;-65
2021/10/22 01:38:10;;;;;;;3.20;0.70;;;;;;;8.94;68.96;99297.71;88774;1277;81760;-65
2021/10/22 01:40:21;;;;;;;3.20;0.50;;;;;;;8.85;68.69;99307.32;88710;1277;99380;-66
2021/10/22 01:42:29;;;;;;;3.40;0.80;;;;;;;8.75;68.70;99309.71;88708;1277;86350;-64
2021/10/22 01:44:36;;;;;;;2.10;0.80;;;;;;;8.67;68.52;99313.70;88686;1277;93378;-64
2021/10/22 01:46:44;;;;;;;1.00;0.40;;;;;;;8.59;68.34;99322.87;88702;1277;80160;-66
2021/10/22 01:48:51;;;;;;;2.50;0.50;;;;;;;8.50;68.23;99322.27;88618;1278;81674;-65
2021/10/22 01:50:59;;;;;;;5.30;0.90;;;;;;;8.46;68.32;99322.13;88659;1278;97878;-64
2021/10/22 01:53:09;;;;;;;2.80;0.60;;;;;;;8.48;68.26;99325.29;88645;1277;89046;-66
2021/10/22 01:55:20;;;;;;;1.90;0.50;;;;;;;8.50;68.18;99331.71;88623;1278;94103;-66
2021/10/22 01:57:28;;;;;;;3.30;0.60;;;;;;;8.52;68.16;99334.16;88722;1277;78541;-65
2021/10/22 01:59:39;;;;;;;6.10;0.70;;;;;;;8.50;68.04;99330.80;88763;1277;82136;-66
2021/10/22 02:01:47;;;;;;;3.20;0.70;;;;;;;8.44;67.91;99336.66;88664;1277;98478;-66
2021/10/22 02:03:54;;;;;;;3.10;0.70;;;;;;;8.39;67.70;99335.60;88729;1277;87225;-62
2021/10/22 02:06:01;;;;;;;2.20;0.90;;;;;;;8.35;67.64;99338.94;88683;1277;95201;-62
2021/10/22 02:08:09;;;;;;;3.20;0.80;;;;;;;8.29;67.52;99343.63;88684;1277;81144;-62
2021/10/22 02:10:16;;;;;;;5.90;1.10;;;;;;;8.24;67.25;99331.23;88703;1277;81010;-63
2021/10/22 02:12:24;;;;;;;4.00;0.80;;;;;;;8.20;67.12;99347.79;88646;1278;99647;-63
2021/10/22 02:14:32;;;;;;;5.20;1.00;;;;;;;8.14;67.33;99348.73;88753;1277;88202;-66
2021/10/22 02:16:40;;;;;;;4.70;1.00;;;;;;;8.05;67.11;99348.86;88640;1276;94971;-66
2021/10/22 02:18:47;;;;;;;5.10;0.90;;;;;;;7.95;67.34;99360.92;88706;1278;79103;-64
2021/10/22 02:20:55;;;;;;;4.60;0.90;;;;;;;7.85;67.40;99355.38;88671;1278;80422;-65
2021/10/22 02:23:02;;;;;;;5.80;1.20;;;;;;;7.80;67.37;99364.46;88603;1277;96972;-66
2021/10/22 02:25:11;;;;;;;4.60;0.90;;;;;;;7.79;67.46;99368.36;88676;1278;88159;-66
2021/10/22 02:27:19;;;;;;;4.50;0.80;;;;;;;7.81;67.44;99365.64;88697;1278;94853;-66
2021/10/22 02:29:26;;;;;;;4.60;1.20;;;;;;;7.86;67.39;99367.58;88714;1278;80236;-66
2021/10/22 02:31:34;;;;;;;5.90;1.00;;;;;;;7.91;67.30;99363.88;88688;1277;81737;-65
2021/10/22 02:33:44;;;;;;;4.40;1.10;;;;;;;7.95;67.40;99361.63;88719;1275;98655;-66
2021/10/22 02:35:52;;;;;;;6.00;1.20;;;;;;;7.97;67.43;99362.42;88637;1271;88426;-65
2021/10/22 02:37:59;;;;;;;6.40;1.00;;;;;;;7.95;67.39;99361.17;88701;1277;94442;-65
2021/10/22 02:40:10;;;;;;;4.10;0.80;;;;;;;7.92;67.38;99369.06;88764;1276;79233;-66
2021/10/22 02:42:17;;;;;;;7.20;1.00;;;;;;;7.88;67.59;99359.07;88716;1277;82282;-66
2021/10/22 02:44:25;;;;;;;5.60;1.10;;;;;;;7.91;67.73;99357.43;88733;1278;98190;-66
2021/10/22 02:46:32;;;;;;;4.10;0.90;;;;;;;7.95;67.76;99357.86;88654;1276;88166;-65
2021/10/22 02:48:40;;;;;;;3.00;0.90;;;;;;;7.99;67.94;99360.95;88656;1278;92937;-61
2021/10/22 02:50:47;;;;;;;8.00;1.40;;;;;;;8.03;68.07;99362.02;88716;1277;79315;-61
2021/10/22 02:52:55;;;;;;;5.30;0.90;;;;;;;8.09;67.88;99362.13;88723;1277;82767;-62
2021/10/22 02:55:03;;;;;;;4.10;1.00;;;;;;;8.13;67.81;99367.45;88790;1276;97713;-62
2021/10/22 02:57:10;;;;;;;4.20;1.20;;;;;;;8.19;67.86;99369.05;88736;1277;88668;-63
2021/10/22 02:59:17;;;;;;;7.60;1.60;;;;;;;8.22;67.77;99375.44;88768;1276;94551;-62
2021/10/22 03:01:25;;;;;;;5.60;1.40;;;;;;;8.24;67.64;99378.23;88684;1277;77480;-61
2021/10/22 03:03:35;;;;;;;6.60;1.30;;;;;;;8.26;67.61;99384.95;88761;1278;82528;-64
2021/10/22 03:05:43;;;;;;;5.70;1.10;;;;;;;8.27;67.51;99388.20;88710;1277;99654;-64
2021/10/22 03:07:51;;;;;;;5.10;0.90;;;;;;;8.26;67.32;99390.13;88642;1278;88148;-64
2021/10/22 03:09:58;;;;;;;6.00;1.00;;;;;;;8.28;67.30;99391.15;88629;1278;94373;-64
2021/10/22 03:12:10;;;;;;;5.10;1.20;;;;;;;8.30;67.12;99387.10;88615;1278;77919;-64
2021/10/22 03:14:17;;;;;;;3.50;0.80;;;;;;;8.32;67.22;99396.30;88753;1277;80424;-64
2021/10/22 03:16:25;;;;;;;3.80;1.10;;;;;;;8.32;67.28;99395.02;88666;1277;99440;-66
2021/10/22 03:18:32;;;;;;;5.80;0.90;;;;;;;8.33;67.27;99390.96;88711;1276;88403;-65
2021/10/22 03:20:40;;;;;;;5.00;1.00;;;;;;;8.35;67.28;99394.57;88686;1277;94646;-64
2021/10/22 03:22:47;;;;;;;3.30;0.90;;;;;;;8.37;67.21;99397.98;88630;1278;80781;-67
2021/10/22 03:24:57;;;;;;;3.30;0.80;;;;;;;8.38;67.26;99403.66;88716;1277;81776;-65
2021/10/22 03:27:10;;;;;;;6.00;1.30;;;;;;;8.38;67.32;99407.05;88748;1278;99075;-66
2021/10/22 03:29:19;;;;;;;6.20;1.00;;;;;;;8.38;67.39;99410.91;88747;1277;88679;-62
2021/10/22 03:31:28;;;;;;;4.60;1.20;;;;;;;8.39;67.41;99418.48;88603;1278;95018;-63
2021/10/22 03:33:38;;;;;;;6.00;1.10;;;;;;;8.39;67.37;99415.21;88673;1277;79489;-64
2021/10/22 03:35:45;;;;;;;2.80;1.10;;;;;;;8.40;67.37;99422.88;88638;1278;80914;-66
2021/10/22 03:37:56;;;;;;;5.50;1.30;;;;;;;8.39;67.31;99423.30;88694;1277;99236;-66
2021/10/22 03:40:06;;;;;;;5.00;1.10;;;;;;;8.37;67.33;99426.96;88760;1275;88357;-64
2021/10/22 03:42:13;;;;;;;4.50;1.10;;;;;;;8.35;67.29;99430.63;88692;1277;93288;-64
2021/10/22 03:44:21;;;;;;;6.70;1.20;;;;;;;8.33;67.17;99439.11;88798;1277;80129;-61
2021/10/22 03:46:28;;;;;;;5.40;0.90;;;;;;;8.32;67.15;99438.08;88681;1277;81952;-62
2021/10/22 03:48:36;;;;;;;5.70;1.30;;;;;;;8.32;67.19;99447.19;88754;1275;98175;-62
2021/10/22 03:50:43;;;;;;;4.70;1.10;;;;;;;8.34;67.31;99442.71;88692;1277;88711;-61
2021/10/22 03:52:51;;;;;;;4.20;1.10;;;;;;;8.34;67.20;99446.15;88642;1277;95311;-62
2021/10/22 03:54:58;;;;;;;7.80;1.30;;;;;;;8.34;67.17;99450.90;88678;1277;78181;-62
2021/10/22 03:57:06;;;;;;;5.80;0.90;;;;;;;8.32;67.27;99464.61;88684;1277;82405;-62
2021/10/22 03:59:16;;;;;;;5.60;1.00;;;;;;;8.27;67.21;99463.69;88660;1277;100024;-62
2021/10/22 04:01:26;;;;;;;5.80;1.20;;;;;;;8.21;67.23;99470.38;88649;1278;89459;-62
2021/10/22 04:03:37;;;;;;;5.60;1.40;;;;;;;8.17;67.32;99473.42;88713;1277;94430;-65
2021/10/22 04:05:45;;;;;;;6.30;1.60;;;;;;;8.14;67.26;99478.83;88680;1277;77079;-66
2021/10/22 04:07:53;;;;;;;6.90;1.40;;;;;;;8.11;67.30;99480.90;88686;1277;82208;-63
2021/10/22 04:10:00;;;;;;;5.00;1.30;;;;;;;8.06;67.32;99478.50;88720;1276;99424;-60
2021/10/22 04:12:09;;;;;;;4.20;1.10;;;;;;;8.01;67.40;99482.20;88647;1278;89014;-62
2021/10/22 04:14:17;;;;;;;6.60;1.80;;;;;;;7.98;67.41;99486.59;88678;1277;93023;-64
2021/10/22 04:16:24;;;;;;;7.20;1.80;;;;;;;7.96;67.57;99491.76;88683;1272;78799;-66
2021/10/22 04:18:35;;;;;;;5.50;1.20;;;;;;;7.91;67.60;99496.64;88730;1278;80549;-65
2021/10/22 04:20:43;;;;;;;4.50;1.30;;;;;;;7.85;67.74;99496.65;88730;1277;98201;-66
2021/10/22 04:22:50;;;;;;;6.10;1.30;;;;;;;7.86;67.75;99504.81;88661;1277;88516;-62
2021/10/22 04:24:58;;;;;;;5.50;1.30;;;;;;;7.80;67.81;99504.44;88741;1277;94527;-64
2021/10/22 04:27:05;;;;;;;7.30;1.80;;;;;;;7.70;67.84;99499.39;88709;1275;77639;-61
2021/10/22 04:29:13;;;;;;;2.80;1.30;;;;;;;7.63;67.89;99505.78;88751;1278;80208;-61
2021/10/22 04:31:21;;;;;;;7.40;1.60;;;;;;;7.61;68.05;99507.36;88683;1277;99312;-61
2021/10/22 04:33:28;;;;;;;3.60;1.20;;;;;;;7.58;68.16;99504.36;88624;1278;87571;-63
2021/10/22 04:35:39;;;;;;;5.30;1.30;;;;;;;7.56;68.26;99507.58;88668;1277;93544;-63
2021/10/22 04:37:59;;;;;;;6.40;1.50;;;;;;;7.53;68.26;99508.31;88668;1275;78971;-62
2021/10/22 04:42:42;;;;;;;5.40;1.50;;;;;;;7.56;68.55;99511.58;88673;1277;99462;-61
2021/10/22 04:44:50;;;;;;;6.50;1.40;;;;;;;7.53;68.55;99508.56;88720;1277;87608;-62
2021/10/22 04:46:58;;;;;;;8.80;1.50;;;;;;;7.46;68.32;99511.94;88644;1277;92103;-60
2021/10/22 04:49:06;;;;;;;5.70;1.40;;;;;;;7.38;68.45;99511.58;88744;1277;78354;-62
2021/10/22 04:51:14;;;;;;;5.20;1.30;;;;;;;7.27;68.75;99518.83;88674;1277;81325;-63
2021/10/22 04:53:26;;;;;;;5.00;1.20;;;;;;;7.18;68.91;99514.42;88687;1277;98169;-64
2021/10/22 04:55:33;;;;;;;4.40;1.30;;;;;;;7.09;68.82;99523.54;88765;1278;88685;-65
2021/10/22 04:57:41;;;;;;;3.60;1.40;;;;;;;7.03;69.01;99522.73;88664;1277;93888;-63
2021/10/22 04:59:48;;;;;;;5.10;1.20;;;;;;;6.98;69.05;99528.12;88718;1278;78617;-63
2021/10/22 05:01:56;;;;;;;6.00;1.50;;;;;;;6.95;69.39;99532.52;88674;1277;81524;-62
2021/10/22 05:04:09;;;;;;;5.10;1.60;;;;;;;6.92;69.44;99534.48;88750;1277;99121;-63
2021/10/22 05:06:17;;;;;;;5.50;1.70;;;;;;;6.93;69.60;99536.85;88749;1277;87543;-62
2021/10/22 05:08:24;;;;;;;6.90;1.40;;;;;;;6.95;69.71;99541.74;88654;1277;93193;-64
2021/10/22 05:10:32;;;;;;;6.00;1.40;;;;;;;6.99;69.79;99544.20;88669;1276;79773;-68
2021/10/22 05:12:40;;;;;;;6.90;1.30;;;;;;;7.05;69.73;99547.19;88635;1278;81757;-64
2021/10/22 05:14:51;;;;;;;5.80;1.50;;;;;;;7.06;69.86;99549.52;88750;1277;98801;-62
2021/10/22 05:16:59;;;;;;;7.30;1.60;;;;;;;7.05;69.80;99552.79;88671;1278;88166;-63
2021/10/22 05:19:06;;;;;;;7.10;1.60;;;;;;;7.04;69.81;99556.58;88741;1276;93178;-62
2021/10/22 05:21:15;;;;;;;6.50;1.50;;;;;;;7.00;69.79;99563.13;88662;1277;76629;-62
2021/10/22 05:23:26;;;;;;;4.60;1.50;;;;;;;6.96;69.68;99558.69;88690;1277;80586;-62
2021/10/22 05:25:36;;;;;;;6.90;1.70;;;;;;;6.93;69.76;99561.58;88719;1277;97503;-61
2021/10/22 05:27:44;;;;;;;7.10;1.60;;;;;;;6.93;69.80;99559.64;88678;1278;88007;-65
2021/10/22 05:29:51;;;;;;;6.40;1.70;;;;;;;6.93;70.01;99571.34;88779;1277;94459;-63
2021/10/22 05:32:00;;;;;;;7.50;1.80;;;;;;;6.93;70.11;99575.33;88713;1277;79565;-68
2021/10/22 05:34:08;;;;;;;6.50;2.00;;;;;;;6.95;70.27;99579.34;88759;1277;82954;-65
2021/10/22 05:36:19;;;;;;;6.60;1.50;;;;;;;7.01;70.13;99585.82;88673;1277;99126;-66
2021/10/22 05:38:31;;;;;;;6.90;1.90;;;;;;;7.05;70.07;99584.92;88748;1275;88099;-68
2021/10/22 05:40:39;;;;;;;6.60;1.80;;;;;;;7.04;69.97;99589.94;88704;1278;94664;-66
2021/10/22 05:42:47;;;;;;;3.90;1.30;;;;;;;6.99;70.01;99595.16;88673;1275;78981;-65
2021/10/22 05:44:54;;;;;;;5.40;1.70;;;;;;;6.94;70.06;99598.13;88732;1276;81088;-62
2021/10/22 05:47:02;;;;;;;6.00;1.60;;;;;;;6.93;70.18;99599.96;88687;1277;99753;-62
2021/10/22 05:49:10;;;;;;;8.00;1.90;;;;;;;6.91;70.13;99600.09;88729;1277;89100;-64
2021/10/22 05:51:18;;;;;;;8.40;1.70;;;;;;;6.93;70.28;99602.31;88705;1277;92839;-63
2021/10/22 05:53:26;;;;;;;5.30;1.40;;;;;;;6.94;70.16;99606.14;88785;1277;77225;-64
2021/10/22 05:55:33;;;;;;;8.50;1.50;;;;;;;6.96;70.00;99604.63;88697;1278;81347;-65
2021/10/22 05:57:41;;;;;;;7.80;1.80;;;;;;;7.09;70.29;99605.52;88746;1277;99883;-63
2021/10/22 05:59:48;;;;;;;6.20;1.70;;;;;;;7.21;70.05;99613.64;88707;1278;88118;-63
2021/10/22 06:01:56;;;;;;;4.80;1.80;;;;;;;7.34;70.12;99611.61;88710;1278;94718;-63
2021/10/22 06:04:07;;;;;;;8.40;1.60;;;;;;;7.44;69.84;99613.77;88798;1277;79178;-62
2021/10/22 06:06:18;;;;;;;4.90;1.60;;;;;;;7.45;69.64;99610.19;88755;1276;81337;-62
2021/10/22 06:08:29;;;;;;;6.50;1.60;;;;;;;7.45;69.43;99613.17;88744;1277;99424;-61
2021/10/22 06:10:36;;;;;;;5.00;1.50;;;;;;;7.43;69.54;99617.52;88700;1278;87978;-61
2021/10/22 06:12:44;;;;;;;16.60;9.70;;;;;;;7.45;69.38;99620.10;88766;1277;93140;-62
2021/10/22 06:14:52;;;;;;;80.50;56.30;;;;;;;7.50;69.48;99624.97;88768;1277;77311;-61
2021/10/22 06:17:03;;;;;;;57.00;35.40;;;;;;;7.59;69.25;99627.89;88766;1277;82029;-63
2021/10/22 06:19:15;;;;;;;12.20;5.30;;;;;;;7.65;69.20;99626.46;88709;1277;98714;-63
2021/10/22 06:21:27;;;;;;;10.60;6.80;;;;;;;7.73;69.08;99637.63;88693;1277;88551;-62
2021/10/22 06:24:00;;;;;;;5.40;1.90;;;;;;;7.79;68.98;99632.36;88763;1277;94487;-66
2021/10/22 06:26:08;;;;;;;6.10;1.90;;;;;;;7.90;68.99;99631.69;88726;1278;79520;-64
2021/10/22 06:28:15;;;;;;;8.90;1.70;;;;;;;8.02;68.73;99626.77;88781;1275;82600;-61
2021/10/22 06:30:26;;;;;;;6.40;1.50;;;;;;;8.11;68.52;99634.56;88763;1277;98011;-60
2021/10/22 06:32:34;;;;;;;5.10;1.30;;;;;;;8.39;68.58;99636.09;88777;1278;88649;-61
2021/10/22 06:34:41;;;;;;;7.60;2.10;;;;;;;8.46;67.99;99641.04;87930;1277;1093257;-60
2021/10/22 06:36:49;;;;;;;23.60;12.60;;;;;;;8.56;67.86;99643.16;88702;1277;79999;-60
2021/10/22 06:38:57;;;;;;;6.40;2.80;;;;;;;8.81;67.93;99641.07;88802;1277;81505;-66
2021/10/22 06:41:07;;;;;;;8.40;1.90;;;;;;;9.08;67.81;99647.71;88755;1278;99185;-67
2021/10/22 06:43:19;;;;;;;7.20;1.50;;;;;;;9.49;67.67;99643.28;88780;1277;89126;-64
2021/10/22 06:45:30;;;;;;;5.80;1.90;;;;;;;10.40;67.22;99641.46;88766;1275;94745;-63
2021/10/22 06:47:41;;;;;;;7.30;1.70;;;;;;;11.42;66.64;99640.35;88679;1276;77928;-63
2021/10/22 06:49:51;;;;;;;6.60;1.40;;;;;;;12.37;65.48;99650.26;88750;1277;81287;-62
2021/10/22 06:52:02;;;;;;;6.50;1.80;;;;;;;13.05;63.77;99656.70;88714;1276;99749;-63
2021/10/22 06:54:10;;;;;;;6.80;1.60;;;;;;;13.68;62.88;99650.85;88767;1277;87412;-62
2021/10/22 06:56:18;;;;;;;5.20;1.50;;;;;;;14.08;60.75;99647.54;88743;1278;94796;-62
2021/10/22 06:58:26;;;;;;;7.40;1.80;;;;;;;14.07;60.16;99649.67;88757;1277;80504;-67
2021/10/22 07:00:34;;;;;;;4.80;1.70;;;;;;;13.86;59.56;99658.27;88751;1275;80956;-65
2021/10/22 07:02:52;;;;;;;6.60;1.70;;;;;;;13.62;59.30;99663.91;88706;1277;99504;-66
2021/10/22 07:05:00;;;;;;;5.90;1.70;;;;;;;13.37;59.13;99664.07;88793;1273;86991;-67
2021/10/22 07:07:18;;;;;;;5.30;1.50;;;;;;;12.90;58.55;99660.72;88710;1278;95482;-65
2021/10/22 07:09:26;;;;;;;5.20;1.60;;;;;;;12.39;58.95;99663.98;88797;1277;79040;-65
2021/10/22 07:11:37;;;;;;;4.60;1.70;;;;;;;12.42;59.14;99665.05;88736;1276;81243;-69
2021/10/22 07:13:52;;;;;;;7.40;1.90;;;;;;;12.50;59.13;99664.78;88652;1277;99529;-67
2021/10/22 07:15:59;;;;;;;5.10;1.90;;;;;;;12.57;58.87;99667.98;88635;1278;86717;-67
2021/10/22 07:18:08;;;;;;;7.20;2.20;;;;;;;12.51;58.63;99670.52;88601;1278;92846;-62
2021/10/22 07:20:16;;;;;;;6.20;2.00;;;;;;;12.62;58.44;99669.58;88687;1276;79893;-63
2021/10/22 07:22:30;;;;;;;6.50;2.10;;;;;;;12.60;58.44;99677.80;88658;1278;80848;-61
2021/10/22 07:24:38;;;;;;;7.50;2.30;;;;;;;12.73;58.20;99669.52;88762;1276;97730;-67
2021/10/22 07:26:49;;;;;;;7.50;2.20;;;;;;;13.11;58.43;99674.11;88695;1277;87282;-67
2021/10/22 07:28:57;;;;;;;6.20;1.50;;;;;;;13.55;57.64;99677.90;88758;1277;95015;-61
2021/10/22 07:31:04;;;;;;;5.80;1.70;;;;;;;13.52;57.19;99682.86;88696;1277;79805;-63
2021/10/22 07:33:15;;;;;;;5.60;2.00;;;;;;;13.23;56.69;99694.86;88754;1276;81424;-61
2021/10/22 07:35:23;;;;;;;6.50;1.60;;;;;;;12.88;56.85;99698.59;88703;1277;97519;-63
2021/10/22 07:37:30;;;;;;;6.10;1.70;;;;;;;12.64;57.27;99704.16;88675;1277;88253;-62
2021/10/22 07:39:38;;;;;;;5.80;2.20;;;;;;;12.68;57.47;99704.05;88753;1277;94902;-62
2021/10/22 07:41:46;;;;;;;7.40;2.10;;;;;;;12.61;57.07;99697.85;88625;1278;78428;-62
2021/10/22 07:43:57;;;;;;;7.00;1.70;;;;;;;12.68;57.24;99711.10;88734;1277;84656;-67
2021/10/22 07:46:08;;;;;;;5.40;1.70;;;;;;;12.77;56.65;99716.70;88655;1278;98466;-67
2021/10/22 07:48:16;;;;;;;7.20;2.00;;;;;;;12.59;56.13;99706.94;88706;1277;86861;-62
2021/10/22 07:50:24;;;;;;;6.80;1.90;;;;;;;12.32;56.49;99710.83;88757;1277;94089;-62
2021/10/22 07:52:32;;;;;;;5.80;1.90;;;;;;;12.63;56.84;99716.93;88640;1277;80650;-62
2021/10/22 07:54:40;;;;;;;6.70;2.20;;;;;;;12.82;56.39;99717.95;88647;1278;81275;-67
2021/10/22 07:56:48;;;;;;;6.50;2.30;;;;;;;12.92;56.33;99716.00;88654;1277;99251;-67
2021/10/22 07:58:55;;;;;;;8.00;2.00;;;;;;;13.43;56.15;99715.63;88735;1275;88545;-66
2021/10/22 08:01:03;;;;;;;8.30;2.30;;;;;;;13.63;55.12;99723.19;88731;1277;94884;-67
2021/10/22 08:03:11;;;;;;;7.60;2.50;;;;;;;13.86;55.54;99722.86;88774;1278;79844;-66
2021/10/22 08:05:22;;;;;;;5.80;1.70;;;;;;;14.21;55.21;99722.06;88697;1277;81106;-67
2021/10/22 08:07:30;;;;;;;7.00;1.60;;;;;;;14.27;54.82;99724.30;88705;1277;98190;-67
2021/10/22 08:09:38;;;;;;;8.00;1.60;;;;;;;14.26;54.59;99725.58;88701;1278;86853;-65
2021/10/22 08:11:49;;;;;;;7.60;2.00;;;;;;;14.36;54.10;99726.07;88677;1277;92122;-65
2021/10/22 08:13:56;;;;;;;7.60;2.80;;;;;;;14.30;53.99;99721.88;88697;1277;78122;-62
2021/10/22 08:16:05;;;;;;;5.80;2.20;;;;;;;14.12;53.71;99724.53;88669;1277;82173;-62
2021/10/22 08:18:14;;;;;;;7.90;1.80;;;;;;;13.81;53.78;99729.38;88709;1277;98842;-62
2021/10/22 08:20:23;;;;;;;5.50;1.60;;;;;;;13.54;53.85;99735.44;88717;1277;88888;-61
2021/10/22 08:22:34;;;;;;;5.70;2.10;;;;;;;13.29;54.00;99737.64;88654;1276;94282;-61
2021/10/22 08:24:42;;;;;;;6.20;1.60;;;;;;;13.19;54.05;99734.61;88640;1278;78343;-63
2021/10/22 08:26:51;;;;;;;6.70;1.70;;;;;;;13.14;54.24;99739.42;88701;1277;80975;-62
2021/10/22 08:28:58;;;;;;;8.50;2.00;;;;;;;13.04;54.36;99736.95;88753;1275;98279;-64
2021/10/22 08:31:06;;;;;;;7.10;1.70;;;;;;;12.98;54.29;99734.77;88669;1278;85613;-65
2021/10/22 08:33:15;;;;;;;7.30;1.80;;;;;;;12.93;54.29;99735.96;88714;1278;94970;-64
2021/10/22 08:35:25;;;;;;;6.70;1.80;;;;;;;12.83;54.49;99742.38;88701;1277;78078;-65
2021/10/22 08:37:34;;;;;;;8.30;2.30;;;;;;;12.74;54.46;99738.66;88661;1277;83274;-67
2021/10/22 08:39:46;;;;;;;6.70;1.90;;;;;;;12.63;54.59;99738.48;88641;1278;98942;-65
2021/10/22 08:41:58;;;;;;;9.50;1.90;;;;;;;12.67;54.76;99743.45;88662;1277;88921;-67
2021/10/22 08:44:08;;;;;;;6.60;1.90;;;;;;;12.76;54.92;99744.27;88724;1278;95131;-71
2021/10/22 08:46:19;;;;;;;7.30;1.90;;;;;;;12.84;55.06;99752.30;88668;1277;78836;-67
2021/10/22 08:48:28;;;;;;;7.90;2.00;;;;;;;12.78;54.97;99749.84;88759;1277;81898;-60
2021/10/22 08:50:38;;;;;;;5.90;1.70;;;;;;;12.69;54.97;99745.73;88700;1277;99542;-62
2021/10/22 08:52:46;;;;;;;6.50;2.20;;;;;;;12.57;54.95;99744.52;88754;1277;88331;-63
2021/10/22 08:54:54;;;;;;;7.60;1.90;;;;;;;12.48;54.83;99749.79;88709;1278;94237;-60
2021/10/22 08:57:04;;;;;;;8.00;1.90;;;;;;;12.50;54.91;99749.20;88690;1278;78198;-61
2021/10/22 08:59:11;;;;;;;10.80;1.70;;;;;;;12.54;55.08;99751.58;88656;1277;80149;-65
2021/10/22 09:01:19;;;;;;;9.40;2.00;;;;;;;12.82;55.24;99751.57;88683;1277;97635;-66
2021/10/22 09:03:35;;;;;;;5.60;2.00;;;;;;;13.35;55.09;99755.70;88698;1278;89564;-66
2021/10/22 09:06:01;;;;;;;7.80;1.90;;;;;;;13.57;54.21;99751.11;88688;1276;95044;-66
2021/10/22 09:08:11;;;;;;;7.90;2.00;;;;;;;13.32;53.84;99753.60;88686;1277;81165;-67
2021/10/22 09:10:23;;;;;;;5.80;1.80;;;;;;;13.14;53.64;99744.96;88738;1277;81683;-66
2021/10/22 09:12:43;;;;;;;6.40;1.90;;;;;;;13.02;53.94;99750.41;88762;1277;99503;-66
2021/10/22 09:15:06;;;;;;;9.70;1.90;;;;;;;12.87;54.11;99748.27;88748;1277;88424;-62
2021/10/22 09:17:14;;;;;;;7.70;2.40;;;;;;;12.69;54.08;99741.31;88659;1278;93221;-62
2021/10/22 09:19:35;;;;;;;8.50;2.00;;;;;;;12.61;54.19;99745.99;88755;1277;78801;-61
2021/10/22 09:21:43;;;;;;;4.60;1.50;;;;;;;12.49;54.37;99747.62;88699;1277;81977;-62
2021/10/22 09:23:53;;;;;;;9.90;1.80;;;;;;;12.53;54.46;99747.55;88677;1277;99004;-65
2021/10/22 09:26:20;;;;;;;7.60;1.90;;;;;;;12.53;54.44;99749.61;88703;1277;88380;-66
2021/10/22 09:28:31;;;;;;;8.70;2.50;;;;;;;12.52;54.56;99748.71;88761;1276;92978;-67
2021/10/22 09:30:43;;;;;;;7.60;1.90;;;;;;;12.57;54.65;99750.31;88755;1277;79679;-66
2021/10/22 09:32:53;;;;;;;9.50;2.30;;;;;;;12.66;54.78;99747.51;88812;1278;82337;-65
2021/10/22 09:35:01;;;;;;;7.40;2.50;;;;;;;12.64;54.64;99746.23;88716;1278;97455;-67
2021/10/22 09:37:14;;;;;;;6.00;1.90;;;;;;;12.52;54.13;99743.31;88716;1278;88536;-67
2021/10/22 09:39:22;;;;;;;7.70;2.10;;;;;;;12.37;54.37;99746.14;88721;1277;94885;-59
2021/10/22 09:41:29;;;;;;;10.00;2.60;;;;;;;12.20;54.56;99741.98;88649;1277;80068;-64
2021/10/22 09:43:39;;;;;;;9.30;2.40;;;;;;;12.13;54.34;99750.27;88651;1278;81117;-65
2021/10/22 09:45:48;;;;;;;7.90;2.10;;;;;;;12.08;54.58;99751.91;88717;1278;98992;-63
2021/10/22 09:47:55;;;;;;;8.90;2.60;;;;;;;12.08;54.62;99756.41;88717;1277;89716;-65
2021/10/22 09:50:11;;;;;;;8.70;2.30;;;;;;;12.03;54.77;99759.20;88702;1277;95562;-65
2021/10/22 09:52:21;;;;;;;9.50;2.40;;;;;;;12.05;54.98;99753.21;88683;1277;78314;-68
2021/10/22 09:54:35;;;;;;;8.30;2.10;;;;;;;12.05;55.02;99759.00;88785;1278;81708;-70
2021/10/22 09:56:56;;;;;;;9.00;2.40;;;;;;;12.05;54.87;99762.79;88725;1277;98175;-67
2021/10/22 09:59:10;;;;;;;7.60;2.30;;;;;;;12.00;54.90;99751.61;88673;1278;88557;-65
2021/10/22 10:01:19;;;;;;;7.10;2.40;;;;;;;11.98;54.90;99752.39;88665;1278;94789;-65
2021/10/22 10:03:26;;;;;;;7.10;2.00;;;;;;;11.96;54.91;99755.75;88752;1278;79008;-65
2021/10/22 10:05:34;;;;;;;14.20;3.00;;;;;;;11.95;54.97;99751.70;88784;1277;80949;-65
2021/10/22 10:07:45;;;;;;;8.30;2.10;;;;;;;11.98;55.26;99750.52;88687;1278;97903;-62
2021/10/22 10:09:54;;;;;;;10.20;2.50;;;;;;;12.05;55.20;99745.92;88721;1278;88345;-62
2021/10/22 10:12:04;;;;;;;9.50;2.60;;;;;;;12.15;54.98;99744.05;88669;1278;94409;-61
2021/10/22 10:14:16;;;;;;;7.80;2.10;;;;;;;12.19;54.86;99738.41;88659;1277;80211;-63
2021/10/22 10:16:27;;;;;;;8.70;2.20;;;;;;;12.36;55.06;99741.35;88629;1278;82364;-63